CAF weather

Carauari Airport
Carauari, Amazonas, Brazil

Public forecast

Using degrees Celsius for public forecast. Weather courtesy of forecast.io.

Closest aviation weather report (METAR) to Carauari Airport

Report is more than 6 hours old.

Closest report is Tefé Airport, 157.9 nm (292.4 km) NE. Retrieved 2020/07/11 22:00 UTC (12 hours ago):

SBTF 112200Z 27002KT 9999 FEW020 SCT100 30/25 Q1010

Closest aviation forecast (TAF) to Carauari Airport

Forecast is more than 6 hours old.

Closest forecast is Tefé Airport, 157.9 nm (292.4 km) NE. Retrieved 2020-07-12 00:54 UTC (9 hours ago):

TAF TAF SBTF 112100Z 1200/1212 00000KT 9999 SCT010 FEW030TCU TN23/1206Z TX25/1212Z PROB30 1202/1205 6000 TSRA BKN015 FEW030CB BECMG 1210/1212 BKN010 RMK PED